Time;durP1;ratioP1;P1;durP2;ratioP2;P2;SDS_P1;SDS_P2;PMS_P1;PMS_P2;Temp;Humidity;BMP_temperature;BMP_pressure;BME280_temperature;BME280_humidity;BME280_pressure;Samples;Min_cycle;Max_cycle;Signal;HPM_P1;HPM_P2
2021/09/27 00:01:58;;;;;;;11.00;8.30;;;;;;;13.06;100.00;98723.06;5067638;28;20020;-66
2021/09/27 00:04:23;;;;;;;12.50;9.02;;;;;;;13.15;100.00;98720.13;5067336;28;20085;-66
2021/09/27 00:06:49;;;;;;;15.10;9.90;;;;;;;13.03;100.00;98729.28;5066885;28;20031;-66
2021/09/27 00:09:14;;;;;;;23.67;9.93;;;;;;;13.02;100.00;98717.84;5067445;28;20028;-66
2021/09/27 00:11:39;;;;;;;18.63;10.23;;;;;;;12.99;100.00;98723.22;5067357;28;20016;-66
2021/09/27 00:14:05;;;;;;;20.15;9.15;;;;;;;12.97;100.00;98719.72;5067321;28;20049;-66
2021/09/27 00:16:31;;;;;;;14.95;9.73;;;;;;;12.96;100.00;98720.63;5067385;28;20016;-66
2021/09/27 00:18:57;;;;;;;18.90;9.98;;;;;;;12.94;100.00;98714.50;5065558;28;20025;-66
2021/09/27 00:21:30;;;;;;;14.90;8.18;;;;;;;12.94;100.00;98714.50;5067081;28;20025;-66
2021/09/27 00:23:56;;;;;;;16.73;8.30;;;;;;;12.90;100.00;98717.28;5067239;28;20348;-66
2021/09/27 00:26:23;;;;;;;16.25;7.47;;;;;;;12.86;100.00;98721.78;5067004;28;20021;-66
2021/09/27 00:28:49;;;;;;;19.80;8.68;;;;;;;12.86;100.00;98716.50;5063771;28;20025;-66
2021/09/27 00:31:15;;;;;;;16.48;8.57;;;;;;;12.86;100.00;98719.16;5046687;28;20079;-66
2021/09/27 00:33:42;;;;;;;12.35;8.15;;;;;;;12.87;100.00;98722.63;5046747;28;20021;-66
2021/09/27 00:36:07;;;;;;;17.90;7.80;;;;;;;12.75;100.00;98708.00;5046885;28;20149;-66
2021/09/27 00:38:33;;;;;;;14.38;7.43;;;;;;;12.65;100.00;98710.91;5047083;28;20033;-66
2021/09/27 00:41:01;;;;;;;17.83;8.80;;;;;;;12.58;100.00;98710.22;5046981;28;20025;-66
2021/09/27 00:43:30;;;;;;;12.32;8.55;;;;;;;12.62;100.00;98706.59;5046829;28;20021;-66
2021/09/27 00:45:58;;;;;;;14.32;7.55;;;;;;;12.51;100.00;98703.38;5046769;28;20097;-66
2021/09/27 00:48:25;;;;;;;11.80;6.60;;;;;;;12.48;100.00;98692.88;5046526;28;20029;-66
2021/09/27 00:50:55;;;;;;;14.35;7.05;;;;;;;12.42;100.00;98698.31;5046766;28;20013;-66
2021/09/27 00:53:35;;;;;;;11.40;6.50;;;;;;;12.37;100.00;98700.19;5046485;28;20021;-66
2021/09/27 00:56:03;;;;;;;12.50;7.60;;;;;;;12.38;100.00;98701.97;5046580;28;20052;-66
2021/09/27 00:58:29;;;;;;;11.00;7.30;;;;;;;12.32;100.00;98704.75;5046379;28;20116;-66
2021/09/27 01:00:56;;;;;;;12.73;6.82;;;;;;;12.22;100.00;98710.28;5046841;28;20029;-66
2021/09/27 01:03:22;;;;;;;10.88;7.05;;;;;;;12.16;100.00;98705.16;5066302;28;20273;-66
2021/09/27 01:06:02;;;;;;;24.45;8.00;;;;;;;12.16;100.00;98706.03;5066243;28;20027;-66
2021/09/27 01:08:40;;;;;;;22.48;6.65;;;;;;;12.08;100.00;98701.81;5066192;28;20016;-66
2021/09/27 01:11:20;;;;;;;23.00;5.80;;;;;;;12.03;100.00;98699.31;5066130;28;20020;-66
2021/09/27 01:14:07;;;;;;;14.82;6.05;;;;;;;11.98;100.00;98708.22;5066058;28;20040;-66
2021/09/27 01:17:08;;;;;;;16.63;5.53;;;;;;;11.97;100.00;98699.47;5066012;28;20025;-66
2021/09/27 01:20:02;;;;;;;12.77;5.57;;;;;;;12.04;100.00;98711.59;5056351;28;20017;-66
2021/09/27 01:22:48;;;;;;;11.07;5.88;;;;;;;11.98;100.00;98701.19;5045618;28;20057;-66
2021/09/27 01:25:29;;;;;;;22.52;5.75;;;;;;;11.99;100.00;98708.19;5045766;28;20022;-66
2021/09/27 01:28:11;;;;;;;13.38;4.90;;;;;;;11.99;100.00;98710.81;5045572;28;20359;-66
2021/09/27 01:30:58;;;;;;;17.60;4.15;;;;;;;11.99;100.00;98705.56;5045424;28;20108;-65
2021/09/27 01:33:39;;;;;;;37.25;5.45;;;;;;;11.87;100.00;98703.19;5047342;28;20209;-65
2021/09/27 01:36:18;;;;;;;14.15;3.63;;;;;;;11.80;100.00;98698.97;5064240;28;20021;-65
2021/09/27 01:39:03;;;;;;;10.15;3.53;;;;;;;11.83;100.00;98712.09;5065876;28;20313;-65
2021/09/27 01:41:46;;;;;;;43.22;3.60;;;;;;;11.69;100.00;98708.91;5065741;28;20092;-65
2021/09/27 01:44:21;;;;;;;64.18;4.03;;;;;;;11.68;100.00;98704.53;5055839;28;20025;-65
2021/09/27 01:46:54;;;;;;;25.63;3.38;;;;;;;11.66;100.00;98708.97;5045511;28;20317;-65
2021/09/27 01:49:45;;;;;;;11.32;3.20;;;;;;;11.67;100.00;98702.78;5045404;28;20072;-65
2021/09/27 01:52:27;;;;;;;10.00;3.17;;;;;;;11.72;100.00;98703.56;5045254;28;20037;-65
2021/09/27 01:55:04;;;;;;;4.75;3.38;;;;;;;11.70;100.00;98699.22;5045090;28;20049;-65
2021/09/27 01:57:36;;;;;;;12.93;3.50;;;;;;;11.72;100.00;98703.56;5045114;28;20336;-65
2021/09/27 02:00:08;;;;;;;26.05;3.60;;;;;;;11.77;100.00;98701.69;5045521;28;20025;-65
2021/09/27 02:02:55;;;;;;;7.22;3.40;;;;;;;11.86;100.00;98706.75;5045144;28;20260;-65
2021/09/27 02:05:51;;;;;;;43.72;4.57;;;;;;;11.80;100.00;98700.75;5045074;28;20017;-65
2021/09/27 02:08:30;;;;;;;10.05;4.00;;;;;;;11.85;100.00;98699.75;5044939;28;20088;-65
2021/09/27 02:11:04;;;;;;;28.20;4.47;;;;;;;11.84;100.00;98695.38;5045029;28;20037;-65
2021/09/27 02:13:35;;;;;;;33.30;4.30;;;;;;;11.87;100.00;98687.38;5044903;28;20090;-65
2021/09/27 02:16:20;;;;;;;23.13;4.03;;;;;;;11.88;100.00;98694.41;5045159;28;20036;-65
2021/09/27 02:18:53;;;;;;;5.55;4.10;;;;;;;11.94;100.00;98698.66;5045115;28;20089;-65
2021/09/27 02:21:29;;;;;;;4.60;3.53;;;;;;;11.96;100.00;98686.31;5052183;28;20050;-65
2021/09/27 02:24:17;;;;;;;8.20;4.35;;;;;;;11.83;100.00;98685.72;5063846;28;20025;-65
2021/09/27 02:26:48;;;;;;;4.95;3.08;;;;;;;11.83;100.00;98687.50;5044844;28;20029;-66
2021/09/27 02:29:15;;;;;;;4.22;3.47;;;;;;;11.72;100.00;98679.84;5044769;28;20017;-66
2021/09/27 02:32:00;;;;;;;6.65;3.88;;;;;;;11.73;100.00;98676.28;5043830;28;20021;-65
2021/09/27 02:34:33;;;;;;;4.78;3.83;;;;;;;11.75;100.00;98674.50;5043735;28;20025;-65
2021/09/27 02:37:31;;;;;;;8.25;3.60;;;;;;;11.63;100.00;98671.25;5043753;28;20021;-65
2021/09/27 02:40:23;;;;;;;10.48;4.18;;;;;;;11.61;100.00;98675.69;5060518;28;20059;-65
2021/09/27 02:42:48;;;;;;;5.53;3.78;;;;;;;11.61;100.00;98668.63;5067085;28;20039;-65
2021/09/27 02:45:14;;;;;;;7.43;3.78;;;;;;;11.64;100.00;98663.31;5067379;28;20028;-65
2021/09/27 02:47:47;;;;;;;5.60;3.20;;;;;;;11.60;100.00;98659.00;5067581;28;20025;-65
2021/09/27 02:50:14;;;;;;;;;;;;;;;11.57;100.00;98661.69;5068185;28;20085;-65
2021/09/27 02:52:39;;;;;;;3.35;2.80;;;;;;;11.49;100.00;98663.66;5067521;28;19904;-65
2021/09/27 02:55:11;;;;;;;8.00;2.92;;;;;;;11.38;100.00;98655.09;5067473;28;20056;-65
2021/09/27 02:57:56;;;;;;;3.05;2.60;;;;;;;11.32;100.00;98655.25;5067469;28;20263;-65
2021/09/27 03:00:57;;;;;;;9.07;2.85;;;;;;;11.20;100.00;98652.84;5067431;28;20240;-65
2021/09/27 03:03:47;;;;;;;6.05;2.97;;;;;;;11.17;100.00;98654.72;5066286;28;20232;-65
2021/09/27 03:06:34;;;;;;;8.38;2.75;;;;;;;11.20;100.00;98650.22;5067308;28;20024;-65
2021/09/27 03:09:14;;;;;;;50.40;4.28;;;;;;;11.16;100.00;98648.56;5067210;28;20044;-65
2021/09/27 03:12:10;;;;;;;30.30;3.72;;;;;;;11.05;100.00;98658.47;5055290;28;20057;-65
2021/09/27 03:15:19;;;;;;;34.65;3.28;;;;;;;10.95;100.00;98649.03;5047188;28;20033;-65
2021/09/27 03:17:57;;;;;;;35.13;3.17;;;;;;;11.02;100.00;98648.00;5046886;28;20025;-65
2021/09/27 03:20:55;;;;;;;6.93;2.35;;;;;;;11.00;100.00;98649.78;5047069;28;20025;-65
2021/09/27 03:23:54;;;;;;;128.98;5.55;;;;;;;10.93;100.00;98645.56;5046947;28;20024;-65
2021/09/27 03:26:56;;;;;;;12.43;2.95;;;;;;;10.94;100.00;98647.28;5046996;28;20260;-65
2021/09/27 03:29:48;;;;;;;6.70;3.03;;;;;;;10.89;100.00;98657.06;5046945;28;20225;-65
2021/09/27 03:33:03;;;;;;;4.68;3.00;;;;;;;10.80;100.00;98654.59;5046917;28;20021;-66
2021/09/27 03:35:48;;;;;;;6.60;2.80;;;;;;;10.74;100.00;98645.06;5010275;28;20041;-66
2021/09/27 03:38:20;;;;;;;8.65;2.95;;;;;;;10.78;100.00;98645.84;5046778;28;20020;-66
2021/09/27 03:40:51;;;;;;;9.85;3.08;;;;;;;10.83;100.00;98644.00;5047006;28;20021;-65
2021/09/27 03:43:26;;;;;;;5.60;3.45;;;;;;;10.90;100.00;98653.50;5045704;28;20092;-65
2021/09/27 03:46:15;;;;;;;6.45;3.40;;;;;;;10.88;100.00;98647.41;5045639;28;20064;-65
2021/09/27 03:48:53;;;;;;;5.82;2.88;;;;;;;10.93;100.00;98650.81;5045574;28;20041;-65
2021/09/27 03:51:25;;;;;;;7.03;2.95;;;;;;;10.78;100.00;98651.13;5045539;28;20067;-65
2021/09/27 03:54:03;;;;;;;4.45;3.00;;;;;;;10.72;100.00;98657.38;5044774;28;20022;-65
2021/09/27 03:56:48;;;;;;;2.30;2.03;;;;;;;10.72;100.00;98656.50;5045758;28;20178;-65
2021/09/27 03:59:18;;;;;;;3.10;2.40;;;;;;;10.70;100.00;98656.53;5045448;28;20094;-65
2021/09/27 04:02:05;;;;;;;5.15;2.70;;;;;;;10.56;100.00;98655.06;5045388;28;20021;-65
2021/09/27 04:05:03;;;;;;;10.63;3.47;;;;;;;10.53;100.00;98649.84;5045071;28;20022;-65
2021/09/27 04:07:29;;;;;;;3.55;2.60;;;;;;;10.56;100.00;98649.81;5045088;28;20026;-65
2021/09/27 04:10:01;;;;;;;3.15;2.53;;;;;;;10.57;100.00;98656.81;5057208;28;20022;-65
2021/09/27 04:12:39;;;;;;;6.70;2.65;;;;;;;10.45;100.00;98657.03;5055475;28;20107;-65
2021/09/27 04:15:50;;;;;;;3.33;2.63;;;;;;;10.52;100.00;98653.41;5046049;28;20317;-65
2021/09/27 04:18:33;;;;;;;3.17;2.38;;;;;;;10.51;100.00;98656.94;5045938;28;20190;-65
2021/09/27 04:21:08;;;;;;;3.13;2.50;;;;;;;10.49;100.00;98645.56;5045931;28;20382;-65
2021/09/27 04:23:34;;;;;;;3.80;2.38;;;;;;;10.39;100.00;98650.13;5045858;28;20021;-65
2021/09/27 04:26:10;;;;;;;4.18;2.15;;;;;;;10.38;100.00;98644.91;5044650;28;20033;-65
2021/09/27 04:28:54;;;;;;;4.03;2.25;;;;;;;10.38;100.00;98645.75;5045736;28;20085;-65
2021/09/27 04:31:28;;;;;;;2.65;2.15;;;;;;;10.45;100.00;98646.53;5045688;28;20021;-65
2021/09/27 04:34:07;;;;;;;2.90;2.10;;;;;;;10.31;100.00;98645.88;5045678;28;20190;-65
2021/09/27 04:36:38;;;;;;;5.95;2.13;;;;;;;10.26;100.00;98651.25;5045683;28;20045;-65
2021/09/27 04:39:10;;;;;;;3.10;2.47;;;;;;;10.28;100.00;98649.44;5045617;28;20088;-65
2021/09/27 04:41:48;;;;;;;2.57;2.23;;;;;;;10.27;100.00;98652.09;5045593;28;20028;-65
2021/09/27 04:44:35;;;;;;;2.97;2.40;;;;;;;10.23;100.00;98648.69;5045501;28;20018;-65
2021/09/27 04:47:26;;;;;;;2.50;2.08;;;;;;;10.26;100.00;98650.38;5045383;28;20026;-65
2021/09/27 04:50:15;;;;;;;3.78;2.15;;;;;;;10.17;100.00;98650.53;5045400;28;20021;-65
2021/09/27 04:53:11;;;;;;;4.82;2.70;;;;;;;10.22;100.00;98646.06;5045335;28;20025;-65
2021/09/27 04:55:55;;;;;;;2.63;2.10;;;;;;;10.18;100.00;98652.25;5045301;28;20225;-65
2021/09/27 04:58:45;;;;;;;2.85;2.15;;;;;;;10.13;100.00;98649.72;5045235;28;20040;-65
2021/09/27 05:01:34;;;;;;;2.10;1.73;;;;;;;10.03;100.00;98650.72;5045201;28;20025;-65
2021/09/27 05:04:17;;;;;;;4.38;2.20;;;;;;;10.09;100.00;98642.78;5044238;28;20053;-65
2021/09/27 05:06:57;;;;;;;2.47;2.03;;;;;;;10.10;100.00;98648.91;5044687;28;20022;-65
2021/09/27 05:09:55;;;;;;;3.42;2.53;;;;;;;10.13;100.00;98654.13;5045011;28;20021;-65
2021/09/27 05:12:32;;;;;;;9.45;2.88;;;;;;;10.13;100.00;98649.72;5044786;28;20167;-65
2021/09/27 05:15:19;;;;;;;6.88;2.97;;;;;;;10.06;100.00;98652.47;5044913;28;20021;-65
2021/09/27 05:18:25;;;;;;;15.48;3.25;;;;;;;10.02;100.00;98656.91;5044837;28;20022;-65
2021/09/27 05:21:09;;;;;;;4.53;2.90;;;;;;;10.12;100.00;98652.38;5044824;28;20021;-65
2021/09/27 05:23:48;;;;;;;4.10;2.72;;;;;;;10.06;100.00;98647.22;5044776;28;20063;-65
2021/09/27 05:26:34;;;;;;;9.73;2.25;;;;;;;10.02;100.00;98650.75;5044717;28;20025;-65
2021/09/27 05:29:23;;;;;;;4.57;3.28;;;;;;;10.09;100.00;98657.66;5044662;28;20275;-65
2021/09/27 05:32:02;;;;;;;3.05;2.25;;;;;;;10.19;100.00;98654.88;5044603;28;20055;-65
2021/09/27 05:34:28;;;;;;;7.90;2.30;;;;;;;10.12;100.00;98649.72;5044579;28;20033;-65
2021/09/27 05:37:15;;;;;;;6.35;2.72;;;;;;;10.02;100.00;98640.25;5044500;28;20024;-65
2021/09/27 05:40:06;;;;;;;4.93;2.15;;;;;;;10.13;100.00;98638.34;5043338;28;20221;-65
2021/09/27 05:42:43;;;;;;;5.22;3.08;;;;;;;10.14;100.00;98643.56;5044437;28;20387;-65
2021/09/27 05:45:46;;;;;;;8.50;2.67;;;;;;;10.15;100.00;98647.06;5044390;28;20312;-65
2021/09/27 05:48:16;;;;;;;;;;;;;;;10.28;100.00;98653.84;5044633;28;20031;-65
2021/09/27 05:50:53;;;;;;;4.68;2.58;;;;;;;10.41;100.00;98644.84;5044287;28;19909;-65
2021/09/27 05:53:35;;;;;;;3.83;2.42;;;;;;;10.50;100.00;98655.19;5044300;28;20366;-65
2021/09/27 05:56:20;;;;;;;4.47;2.55;;;;;;;10.50;100.00;98649.91;5044463;28;20021;-65
2021/09/27 05:59:08;;;;;;;4.75;2.90;;;;;;;10.57;100.00;98659.44;5044169;28;20025;-65
2021/09/27 06:01:40;;;;;;;19.80;3.22;;;;;;;10.47;100.00;98655.22;5043997;28;20021;-65
2021/09/27 06:04:40;;;;;;;4.60;2.75;;;;;;;10.42;100.00;98654.47;5044049;28;20079;-65
2021/09/27 06:07:14;;;;;;;4.40;2.88;;;;;;;10.63;100.00;98652.28;5043996;28;20221;-65
2021/09/27 06:09:58;;;;;;;4.95;2.75;;;;;;;10.87;100.00;98656.22;5044033;28;20018;-65
2021/09/27 06:12:45;;;;;;;4.07;2.05;;;;;;;10.99;100.00;98651.53;5043778;28;20046;-65
2021/09/27 06:15:14;;;;;;;3.67;2.40;;;;;;;11.07;100.00;98659.28;5043983;28;20021;-65
2021/09/27 06:17:45;;;;;;;6.43;4.03;;;;;;;11.06;100.00;98656.69;5043623;28;20041;-65
2021/09/27 06:20:33;;;;;;;4.67;2.80;;;;;;;11.16;100.00;98664.38;5043927;28;20025;-65
2021/09/27 06:23:17;;;;;;;3.10;2.38;;;;;;;11.20;100.00;98660.75;5043790;28;20021;-65
2021/09/27 06:26:04;;;;;;;5.25;2.60;;;;;;;11.27;100.00;98664.16;5043898;28;20021;-65
2021/09/27 06:28:33;;;;;;;3.42;2.55;;;;;;;11.39;100.00;98661.25;5043663;28;20021;-65
2021/09/27 06:31:09;;;;;;;4.45;2.70;;;;;;;11.39;100.00;98654.19;5044053;28;20213;-65
2021/09/27 06:33:48;;;;;;;7.32;3.00;;;;;;;11.49;100.00;98653.13;5043791;28;20029;-65
2021/09/27 06:36:19;;;;;;;7.30;3.22;;;;;;;11.53;100.00;98654.78;5043771;28;20021;-65
2021/09/27 06:38:44;;;;;;;3.67;2.40;;;;;;;11.64;100.00;98652.78;5043767;28;20194;-65
2021/09/27 06:41:20;;;;;;;6.40;2.55;;;;;;;11.70;100.00;98644.72;5043684;28;20044;-65
2021/09/27 06:43:46;;;;;;;3.78;2.85;;;;;;;11.70;100.00;98652.63;5043750;28;20025;-65
2021/09/27 06:46:12;;;;;;;6.07;2.78;;;;;;;11.73;100.00;98656.97;5043957;28;20017;-65
2021/09/27 06:48:38;;;;;;;3.80;2.70;;;;;;;11.81;100.00;98658.53;5043570;28;20194;-65
2021/09/27 06:51:03;;;;;;;9.63;3.10;;;;;;;11.82;100.00;98662.91;5042506;28;20059;-65
2021/09/27 06:53:30;;;;;;;3.47;2.80;;;;;;;11.92;100.00;98656.50;5043567;28;20028;-65
2021/09/27 06:55:57;;;;;;;4.05;2.78;;;;;;;11.99;100.00;98655.44;5043549;28;20325;-65
2021/09/27 06:58:23;;;;;;;3.17;2.47;;;;;;;12.12;100.00;98663.94;5043578;28;20018;-65
2021/09/27 07:00:50;;;;;;;6.53;3.35;;;;;;;12.28;100.00;98663.47;5043543;28;20392;-65
2021/09/27 07:03:16;;;;;;;4.10;3.08;;;;;;;12.42;100.00;98658.72;5043493;28;20213;-65
2021/09/27 07:05:41;;;;;;;4.90;2.53;;;;;;;12.37;100.00;98655.34;5043490;28;20087;-65
2021/09/27 07:08:07;;;;;;;3.72;2.83;;;;;;;12.36;100.00;98650.97;5043387;28;20056;-65
2021/09/27 07:10:32;;;;;;;5.10;2.92;;;;;;;12.61;100.00;98661.75;5043435;28;20055;-65
2021/09/27 07:12:58;;;;;;;5.10;3.38;;;;;;;13.87;99.00;98662.41;5043239;28;20068;-65
2021/09/27 07:15:23;;;;;;;4.95;2.70;;;;;;;15.21;93.68;98663.88;5042254;28;20116;-65
2021/09/27 07:17:49;;;;;;;7.43;2.70;;;;;;;15.56;92.11;98674.06;5043367;28;20024;-65
2021/09/27 07:20:21;;;;;;;3.05;2.30;;;;;;;15.72;90.53;98664.56;5043377;28;20343;-65
2021/09/27 07:22:47;;;;;;;4.53;2.58;;;;;;;15.15;90.46;98677.34;5043371;28;20022;-65
2021/09/27 07:25:14;;;;;;;5.18;2.55;;;;;;;14.86;93.16;98672.25;5043320;28;20028;-65
2021/09/27 07:27:40;;;;;;;6.60;2.72;;;;;;;14.65;93.64;98670.38;5043261;28;20107;-65
2021/09/27 07:30:08;;;;;;;5.88;2.80;;;;;;;14.29;95.05;98666.31;5046918;28;20021;-65
2021/09/27 07:32:34;;;;;;;4.88;2.60;;;;;;;14.24;96.11;98665.63;5046799;28;20096;-65
2021/09/27 07:35:00;;;;;;;9.23;2.97;;;;;;;14.39;95.83;98665.09;5046815;28;20021;-65
2021/09/27 07:37:25;;;;;;;4.70;2.58;;;;;;;16.10;90.16;98660.41;5046736;28;20076;-65
2021/09/27 07:39:50;;;;;;;11.27;4.18;;;;;;;17.15;86.29;98646.03;5046745;28;20216;-65
2021/09/27 07:42:16;;;;;;;7.60;4.75;;;;;;;18.01;83.72;98670.38;5046658;28;20048;-65
2021/09/27 07:44:42;;;;;;;6.97;4.05;;;;;;;18.96;81.88;98669.09;5046612;28;20025;-65
2021/09/27 07:47:07;;;;;;;4.50;3.08;;;;;;;19.96;79.02;98654.66;5046496;28;20225;-65
2021/09/27 07:49:33;;;;;;;10.63;3.47;;;;;;;20.75;76.23;98709.75;5046583;28;20025;-66
2021/09/27 07:51:58;;;;;;;7.18;3.90;;;;;;;21.15;73.96;98679.69;5046492;28;20092;-66
2021/09/27 07:54:24;;;;;;;9.25;3.70;;;;;;;21.89;73.47;98681.25;5046470;28;20021;-66
2021/09/27 07:56:50;;;;;;;14.02;4.55;;;;;;;22.43;73.79;98679.50;5046328;28;20025;-66
2021/09/27 07:59:16;;;;;;;8.63;4.05;;;;;;;23.17;72.17;98681.53;5046352;28;20052;-66
2021/09/27 08:01:42;;;;;;;7.63;3.95;;;;;;;23.65;69.10;100413.78;5046364;28;20025;-66
2021/09/27 08:04:09;;;;;;;8.90;3.90;;;;;;;22.59;73.76;103660.69;5046196;28;20025;-66
2021/09/27 08:06:35;;;;;;;9.10;4.25;;;;;;;21.74;74.12;101168.66;5046488;28;20092;-66
2021/09/27 08:09:01;;;;;;;6.25;3.92;;;;;;;21.26;76.01;98643.28;5046183;28;20257;-66
2021/09/27 08:11:27;;;;;;;6.07;4.15;;;;;;;21.00;77.90;98641.34;5046126;28;20033;-66
2021/09/27 08:13:53;;;;;;;9.02;4.57;;;;;;;22.18;74.88;98636.47;5045949;28;20033;-66
2021/09/27 08:16:18;;;;;;;7.32;4.18;;;;;;;22.61;73.62;98643.41;5046055;28;20339;-66
2021/09/27 08:18:44;;;;;;;9.70;4.65;;;;;;;23.63;71.50;98641.53;5045998;28;20017;-66
2021/09/27 08:21:12;;;;;;;6.30;3.72;;;;;;;24.34;66.51;98644.38;5045932;28;20025;-66
2021/09/27 08:23:38;;;;;;;6.47;3.95;;;;;;;24.54;66.43;98635.66;5045885;28;20088;-66
2021/09/27 08:26:07;;;;;;;10.50;4.38;;;;;;;25.14;64.89;98639.94;5046124;28;20071;-66
2021/09/27 08:28:34;;;;;;;9.70;4.28;;;;;;;25.09;65.87;98636.72;5045742;28;20025;-66
2021/09/27 08:31:03;;;;;;;7.00;3.45;;;;;;;25.06;63.21;98636.97;5045728;28;20022;-66
2021/09/27 08:33:30;;;;;;;7.28;3.70;;;;;;;23.86;68.02;98646.13;5045697;28;20031;-66
2021/09/27 08:35:58;;;;;;;6.88;3.75;;;;;;;22.96;70.59;98648.09;5044549;28;20104;-66
2021/09/27 08:38:26;;;;;;;7.93;3.70;;;;;;;22.48;71.81;98647.84;5045700;28;20024;-66
2021/09/27 08:41:02;;;;;;;6.35;4.00;;;;;;;22.21;72.30;98641.63;5045668;28;20228;-66
2021/09/27 08:43:35;;;;;;;7.72;3.85;;;;;;;23.39;69.81;98637.94;5045584;28;20025;-66
2021/09/27 08:46:10;;;;;;;8.40;3.70;;;;;;;24.10;68.67;98655.13;5045487;28;20263;-66
2021/09/27 08:48:40;;;;;;;10.05;3.60;;;;;;;24.34;65.92;98652.44;5045391;28;20029;-66
2021/09/27 08:51:06;;;;;;;9.05;4.03;;;;;;;24.78;65.89;98637.38;5045425;28;20309;-66
2021/09/27 08:53:36;;;;;;;9.23;4.43;;;;;;;24.74;66.09;98637.75;5045346;28;20028;-66
2021/09/27 08:56:11;;;;;;;8.52;4.32;;;;;;;24.64;65.79;98637.56;5045275;28;20021;-66
2021/09/27 08:58:56;;;;;;;7.35;3.78;;;;;;;25.85;64.42;98649.56;5045240;28;20256;-66
2021/09/27 09:01:44;;;;;;;5.82;4.10;;;;;;;26.15;63.15;98641.69;5045213;28;20024;-66
2021/09/27 09:04:35;;;;;;;8.32;3.80;;;;;;;25.83;61.48;98641.59;5044882;28;20380;-66
2021/09/27 09:07:07;;;;;;;10.15;4.07;;;;;;;25.57;61.42;98629.34;5045052;28;20021;-66
2021/09/27 09:09:41;;;;;;;10.07;4.43;;;;;;;25.66;62.99;98630.44;5045328;28;20030;-66
2021/09/27 09:12:30;;;;;;;8.68;3.95;;;;;;;25.72;63.16;98632.66;5044831;28;20021;-66
2021/09/27 09:15:20;;;;;;;6.90;4.25;;;;;;;25.69;62.16;98638.28;5044956;28;20088;-66
2021/09/27 09:17:52;;;;;;;9.57;4.13;;;;;;;24.95;63.84;98638.78;5044907;28;20025;-66
2021/09/27 09:20:36;;;;;;;9.27;3.75;;;;;;;24.31;65.83;98640.09;5044901;28;20025;-66
2021/09/27 09:23:01;;;;;;;10.93;4.88;;;;;;;23.73;67.48;98641.75;5044761;28;20088;-66
2021/09/27 09:25:39;;;;;;;8.88;4.15;;;;;;;23.07;69.82;98647.34;5044719;28;20186;-66
2021/09/27 09:28:09;;;;;;;12.50;4.32;;;;;;;22.68;71.39;98645.56;5044566;28;20018;-66
2021/09/27 09:30:49;;;;;;;11.80;4.25;;;;;;;22.39;74.01;98653.81;5044615;28;20025;-66
2021/09/27 09:34:14;;;;;;;14.43;4.55;;;;;;;22.36;75.12;98654.88;5043456;28;20256;-66
2021/09/27 09:36:40;;;;;;;9.25;3.85;;;;;;;21.84;74.42;98650.34;5035939;28;20388;-66
2021/09/27 09:39:17;;;;;;;9.27;4.57;;;;;;;21.79;76.05;98647.09;5042805;28;20049;-66
2021/09/27 09:41:48;;;;;;;8.95;4.82;;;;;;;21.78;74.15;98651.59;5042805;28;20061;-66
2021/09/27 09:44:27;;;;;;;8.15;4.35;;;;;;;21.57;74.83;98652.09;5042731;28;20034;-66
2021/09/27 09:47:08;;;;;;;7.38;3.83;;;;;;;21.65;75.71;98649.75;5042575;28;20345;-66
2021/09/27 09:50:21;;;;;;;9.90;4.80;;;;;;;21.92;76.28;98645.38;5042672;28;20297;-66
2021/09/27 09:52:56;;;;;;;7.53;4.35;;;;;;;21.99;76.18;98644.00;4964077;29;20153;-66
2021/09/27 09:55:39;;;;;;;7.93;4.43;;;;;;;21.83;75.37;98643.28;4964411;29;20039;-66
2021/09/27 09:58:38;;;;;;;10.95;3.97;;;;;;;21.73;75.62;98647.47;5019351;28;20383;-66
2021/09/27 10:01:16;;;;;;;16.63;4.30;;;;;;;21.55;76.19;98651.31;5042478;28;20363;-66
2021/09/27 10:03:45;;;;;;;9.38;4.20;;;;;;;21.55;76.37;98643.28;5042417;28;20225;-66
2021/09/27 10:06:37;;;;;;;9.82;4.97;;;;;;;21.81;75.19;98645.19;5042561;28;20048;-66
2021/09/27 10:09:07;;;;;;;9.10;4.25;;;;;;;21.91;74.76;98651.66;5043678;28;20340;-66
2021/09/27 10:11:42;;;;;;;7.40;4.60;;;;;;;21.82;75.56;98641.53;5044574;28;20248;-66
2021/09/27 10:14:28;;;;;;;5.57;3.33;;;;;;;21.71;76.01;98638.66;5043875;28;20041;-66
2021/09/27 10:17:16;;;;;;;8.20;4.13;;;;;;;21.56;75.84;98640.50;5043959;28;20045;-66
2021/09/27 10:20:10;;;;;;;5.63;3.63;;;;;;;21.08;74.92;98633.69;5043406;28;20092;-66
2021/09/27 10:22:42;;;;;;;8.77;3.88;;;;;;;20.88;77.63;98636.69;5043889;28;20045;-66
2021/09/27 10:25:29;;;;;;;6.07;3.50;;;;;;;20.75;77.92;98635.72;5043944;28;20220;-66
2021/09/27 10:27:55;;;;;;;8.80;4.15;;;;;;;21.13;76.08;98634.28;5043747;28;20032;-66
2021/09/27 10:30:28;;;;;;;8.68;3.80;;;;;;;21.35;76.59;98630.28;5043824;28;20220;-66
2021/09/27 10:33:02;;;;;;;6.95;4.03;;;;;;;22.30;73.95;98639.19;5043861;28;20220;-66
2021/09/27 10:35:27;;;;;;;15.00;4.15;;;;;;;22.75;74.40;98630.75;5043804;28;20025;-66
2021/09/27 10:38:07;;;;;;;7.43;3.95;;;;;;;23.56;69.49;98618.78;5043764;28;20351;-66
2021/09/27 10:40:34;;;;;;;7.22;3.60;;;;;;;23.96;67.56;98627.53;5043762;28;20021;-66
2021/09/27 10:43:01;;;;;;;7.13;3.92;;;;;;;24.66;66.78;98621.31;5043687;28;20343;-66
2021/09/27 10:45:29;;;;;;;7.57;3.53;;;;;;;25.11;64.82;98628.53;5043689;28;20332;-66
2021/09/27 10:47:58;;;;;;;10.27;3.25;;;;;;;24.94;66.66;98619.09;5043570;28;20025;-66
2021/09/27 10:50:33;;;;;;;7.07;3.30;;;;;;;23.92;67.86;98626.84;5043615;28;20028;-66
2021/09/27 10:53:15;;;;;;;6.47;3.33;;;;;;;23.14;67.86;98622.66;5043656;28;20026;-66
2021/09/27 10:55:43;;;;;;;7.50;2.90;;;;;;;22.80;69.52;98643.88;5043716;28;20029;-66
2021/09/27 10:58:11;;;;;;;8.07;4.00;;;;;;;22.39;70.01;98630.53;5043587;28;20017;-66
2021/09/27 11:00:52;;;;;;;7.05;3.38;;;;;;;22.08;73.82;98632.69;5043562;28;20317;-66
2021/09/27 11:03:42;;;;;;;8.07;3.65;;;;;;;22.46;72.32;98628.31;5044577;28;20025;-66
2021/09/27 11:06:37;;;;;;;8.77;3.92;;;;;;;22.87;72.97;98629.94;5047340;28;20088;-66
2021/09/27 11:09:13;;;;;;;9.40;3.75;;;;;;;23.10;70.68;98663.25;5047284;28;20029;-66
2021/09/27 11:11:46;;;;;;;8.23;3.75;;;;;;;23.09;69.80;98623.91;5047311;28;20339;-66
2021/09/27 11:14:36;;;;;;;6.28;3.33;;;;;;;23.04;70.15;98626.91;5047081;28;20037;-66
2021/09/27 11:17:07;;;;;;;7.78;3.80;;;;;;;22.43;72.54;98633.88;5047488;28;20017;-66
2021/09/27 11:19:32;;;;;;;9.55;3.55;;;;;;;22.17;72.21;98626.69;5047122;28;20040;-66
2021/09/27 11:22:13;;;;;;;6.85;4.03;;;;;;;21.84;74.38;98635.13;5047080;28;20284;-66
2021/09/27 11:24:41;;;;;;;4.88;3.15;;;;;;;21.86;73.55;98627.00;5047046;28;20024;-66
2021/09/27 11:27:11;;;;;;;12.98;3.85;;;;;;;22.00;74.39;98624.28;5046925;28;20061;-66
2021/09/27 11:29:36;;;;;;;9.27;3.88;;;;;;;22.28;75.44;98621.50;5046925;28;20032;-66
2021/09/27 11:32:25;;;;;;;8.13;3.80;;;;;;;22.75;73.83;98619.19;5046860;28;20021;-66
2021/09/27 11:35:42;;;;;;;7.53;3.67;;;;;;;22.91;72.07;98625.22;5046869;28;20080;-66
2021/09/27 11:38:18;;;;;;;9.73;3.75;;;;;;;23.25;70.57;98613.84;5045793;28;20096;-66
2021/09/27 11:40:46;;;;;;;5.60;4.03;;;;;;;23.77;68.70;98606.47;5046786;28;20194;-66
2021/09/27 11:43:34;;;;;;;6.35;3.45;;;;;;;23.89;66.96;98592.13;5046695;28;20092;-66
2021/09/27 11:46:07;;;;;;;8.20;3.70;;;;;;;23.97;68.13;98603.22;5046629;28;20029;-66
2021/09/27 11:48:34;;;;;;;7.60;3.42;;;;;;;23.80;68.78;98590.13;5046514;28;20032;-66
2021/09/27 11:51:06;;;;;;;5.38;3.08;;;;;;;23.39;68.72;98600.31;5046507;28;20056;-66
2021/09/27 11:53:34;;;;;;;5.80;2.97;;;;;;;23.22;66.35;98592.53;5045354;28;20027;-66
2021/09/27 11:56:12;;;;;;;8.95;2.58;;;;;;;23.29;67.79;98597.41;5046438;28;20021;-66
2021/09/27 11:58:46;;;;;;;7.13;2.63;;;;;;;23.27;67.36;98601.19;5046428;28;20021;-66
2021/09/27 12:01:18;;;;;;;9.07;2.95;;;;;;;23.16;69.52;98598.38;5046427;28;20089;-66
2021/09/27 12:04:11;;;;;;;;;;;;;;;23.12;68.22;98602.22;5045587;28;20079;-66
2021/09/27 12:06:41;;;;;;;6.28;3.20;;;;;;;22.87;70.44;98612.94;5046290;28;19905;-66
2021/09/27 12:09:16;;;;;;;10.00;3.10;;;;;;;22.72;69.88;98600.59;5046221;28;20233;-66
2021/09/27 12:11:51;;;;;;;8.70;3.53;;;;;;;22.69;68.77;98608.88;5046206;28;20036;-66